METAR

METAR

SAPL62 EPRA 280300
METAR EPRA 280300Z 17007KT CAVOK 04/00 Q1002=

TAF

TAF

FCPL62 EPRA 280200
TAF EPRA 280230Z 2803/2812 17009KT CAVOK=

Witamy na stronie Radom Meteo

zawsze aktualna prognoza dla pilotów 

W zakresie osłony meteorologicznej realizujemy:

  • wykonywanie pomiarów i obserwacji meteorologicznych;
  • przygotowane prognoz meteorologicznych;
  • opracowywanie ostrzeżeń meteorologicznych;
  • informowanie o warunkach meteorologicznych;
  • dystrybucję informacji meteorologicznych;
  • opracowywanie danych klimatycznych.